createdAt,value
2023-03-23T15:58:50.475Z,13.30
2023-03-23T16:01:31.137Z,13.30
2023-03-23T16:04:08.717Z,13.30
2023-03-23T16:06:37.426Z,13.30
2023-03-23T16:09:06.685Z,13.00
2023-03-23T16:11:34.236Z,12.90
2023-03-23T16:14:01.881Z,13.00
2023-03-23T16:16:40.208Z,13.20
2023-03-23T16:19:08.272Z,13.30
2023-03-23T16:21:35.653Z,13.30
2023-03-23T16:24:03.721Z,13.30
2023-03-23T16:26:31.155Z,13.20
2023-03-23T16:29:09.601Z,13.30
2023-03-23T16:31:42.110Z,13.20
2023-03-23T16:34:09.812Z,13.10
2023-03-23T16:36:37.154Z,13.20
2023-03-23T16:39:04.505Z,13.10
2023-03-23T16:41:31.774Z,13.00
2023-03-23T16:43:59.237Z,13.00
2023-03-23T16:46:26.603Z,13.00
2023-03-23T16:48:53.915Z,13.00
2023-03-23T16:51:21.461Z,12.90
2023-03-23T16:53:49.481Z,13.00
2023-03-23T16:56:16.834Z,13.00
2023-03-23T16:58:44.158Z,13.00
2023-03-23T17:01:12.082Z,12.90
2023-03-23T17:03:41.827Z,12.70
2023-03-23T17:06:10.037Z,12.60
2023-03-23T17:08:37.295Z,12.50
2023-03-23T17:11:04.781Z,12.40
2023-03-23T17:13:31.998Z,12.50
2023-03-23T17:15:59.401Z,12.50
2023-03-23T17:18:28.756Z,12.60
2023-03-23T17:20:56.513Z,12.60
2023-03-23T17:23:24.612Z,12.70
2023-03-23T17:25:52.220Z,12.80
2023-03-23T17:28:21.032Z,12.80
2023-03-23T17:30:48.820Z,12.70
2023-03-23T17:33:16.262Z,12.80
2023-03-23T17:35:47.170Z,12.90
2023-03-23T17:38:14.884Z,12.80
2023-03-23T17:40:42.147Z,12.70
2023-03-23T17:43:09.518Z,12.70
2023-03-23T17:45:37.251Z,12.60
2023-03-23T17:48:08.351Z,12.60
2023-03-23T17:50:36.820Z,12.60
2023-03-23T17:53:04.677Z,12.60
2023-03-23T17:55:31.927Z,12.60
2023-03-23T17:57:59.326Z,12.60
2023-03-23T18:00:26.696Z,12.50
2023-03-23T18:02:54.032Z,12.50
2023-03-23T18:05:21.495Z,12.50
2023-03-23T18:07:48.827Z,12.50
2023-03-23T18:10:16.442Z,12.60
2023-03-23T18:12:43.704Z,12.60
2023-03-23T18:15:11.929Z,12.60
2023-03-23T18:17:39.310Z,12.60
2023-03-23T18:20:07.808Z,12.60
2023-03-23T18:22:35.146Z,12.50
2023-03-23T18:25:04.506Z,12.40
2023-03-23T18:27:32.123Z,12.40
2023-03-23T18:29:59.971Z,12.40
2023-03-23T18:32:28.057Z,12.40
2023-03-23T18:34:56.477Z,12.30
2023-03-23T18:37:23.986Z,12.20
2023-03-23T18:39:51.894Z,12.30
2023-03-23T18:42:19.826Z,12.30
2023-03-23T18:44:47.464Z,12.30
2023-03-23T18:47:15.070Z,12.30
2023-03-23T18:49:42.717Z,12.30
2023-03-23T18:52:10.394Z,12.30
2023-03-23T18:54:40.519Z,12.30
2023-03-23T18:57:07.858Z,12.30
2023-03-23T18:59:36.120Z,12.40
2023-03-23T19:02:05.207Z,12.40
2023-03-23T19:04:33.251Z,12.40
2023-03-23T19:07:01.808Z,12.30
2023-03-23T19:09:30.677Z,12.30
2023-03-23T19:11:58.200Z,12.30
2023-03-23T19:14:26.176Z,12.20
2023-03-23T19:16:53.836Z,12.30
2023-03-23T19:19:22.073Z,12.30
2023-03-23T19:21:49.678Z,12.30
2023-03-23T19:24:17.105Z,12.40
2023-03-23T19:26:46.627Z,12.30
2023-03-23T19:31:47.206Z,12.30
2023-03-23T19:34:16.064Z,12.20
2023-03-23T19:36:53.789Z,12.30
2023-03-23T19:39:23.635Z,12.30
2023-03-23T19:41:51.399Z,12.30
2023-03-23T19:44:19.044Z,12.30
2023-03-23T19:46:48.414Z,12.30
2023-03-23T19:49:16.421Z,12.30
2023-03-23T19:51:43.813Z,12.30
2023-03-23T19:54:13.410Z,12.30
2023-03-23T19:56:43.520Z,12.30
2023-03-23T19:59:15.008Z,12.20
2023-03-23T20:01:44.281Z,12.10
2023-03-23T20:04:12.187Z,12.00
2023-03-23T20:06:39.898Z,11.90
2023-03-23T20:09:07.528Z,11.90
2023-03-23T20:11:35.133Z,12.00
2023-03-23T20:14:03.067Z,11.90
2023-03-23T20:16:31.336Z,11.90
2023-03-23T20:19:00.273Z,11.80
2023-03-23T20:21:28.302Z,11.90
2023-03-23T20:23:57.646Z,12.00
2023-03-23T20:26:38.148Z,12.00
2023-03-23T20:29:07.370Z,12.00
2023-03-23T20:31:38.954Z,12.10
2023-03-23T20:34:11.072Z,12.00
2023-03-23T20:36:42.524Z,12.10
2023-03-23T20:39:15.451Z,12.00
2023-03-23T20:41:43.980Z,12.00
2023-03-23T20:44:16.685Z,11.90
2023-03-23T20:46:45.996Z,11.90
2023-03-23T20:49:15.192Z,11.70
2023-03-23T20:51:43.916Z,11.70
2023-03-23T20:54:14.405Z,11.60
2023-03-23T20:56:43.853Z,11.60
2023-03-23T20:59:12.588Z,11.60
2023-03-23T21:01:40.775Z,11.60
2023-03-23T21:04:15.462Z,11.50
2023-03-23T21:06:44.870Z,11.50
2023-03-23T21:09:14.053Z,11.50
2023-03-23T21:11:42.272Z,11.50
2023-03-23T21:14:10.838Z,11.30
2023-03-23T21:16:38.389Z,11.10
2023-03-23T21:19:06.786Z,11.00
2023-03-23T21:21:34.626Z,11.00
2023-03-23T21:24:02.128Z,11.10
2023-03-23T21:26:30.574Z,11.10
2023-03-23T21:29:00.675Z,10.90
2023-03-23T21:31:33.432Z,10.90
2023-03-23T21:34:01.168Z,10.80
2023-03-23T21:36:29.047Z,10.70
2023-03-23T21:38:57.522Z,10.50
2023-03-23T21:41:25.239Z,10.50
2023-03-23T21:43:52.770Z,10.70
2023-03-23T21:46:20.296Z,10.80
2023-03-23T21:48:51.618Z,10.80
2023-03-23T21:51:30.008Z,10.80
2023-03-23T21:53:57.680Z,10.80
2023-03-23T21:56:27.549Z,10.80
2023-03-23T21:58:57.008Z,10.80
2023-03-23T22:01:24.923Z,10.70
2023-03-23T22:03:52.576Z,10.80
2023-03-23T22:06:34.647Z,10.80
2023-03-23T22:09:05.658Z,10.90
2023-03-23T22:11:33.750Z,11.00
2023-03-23T22:14:01.652Z,11.00
2023-03-23T22:16:29.689Z,11.00
2023-03-23T22:19:00.370Z,11.00
2023-03-23T22:21:29.010Z,11.00
2023-03-23T22:23:58.511Z,10.90
2023-03-23T22:26:27.815Z,10.70
2023-03-23T22:28:56.085Z,10.70
2023-03-23T22:31:26.751Z,10.70
2023-03-23T22:33:56.218Z,10.90
2023-03-23T22:36:25.628Z,10.90
2023-03-23T22:38:55.135Z,10.80
2023-03-23T22:41:38.196Z,10.80
2023-03-23T22:44:08.963Z,10.70
2023-03-23T22:46:36.638Z,10.90
2023-03-23T22:49:04.110Z,10.90
2023-03-23T22:51:31.979Z,10.90
2023-03-23T22:53:59.292Z,10.90
2023-03-23T22:56:26.806Z,10.90
2023-03-23T22:58:54.775Z,10.80
2023-03-23T23:01:23.029Z,10.80
2023-03-23T23:03:50.830Z,10.80
2023-03-23T23:06:19.452Z,10.90
2023-03-23T23:08:47.908Z,11.00
2023-03-23T23:11:18.194Z,11.00
2023-03-23T23:13:45.827Z,11.20
2023-03-23T23:16:17.441Z,11.20
2023-03-23T23:18:47.725Z,11.20
2023-03-23T23:21:18.703Z,11.30
2023-03-23T23:23:46.940Z,11.30
2023-03-23T23:26:16.161Z,11.20
2023-03-23T23:28:44.282Z,11.20
2023-03-23T23:31:40.053Z,11.20
2023-03-23T23:34:07.568Z,11.20
2023-03-23T23:36:34.808Z,11.10
2023-03-23T23:39:06.261Z,11.00
2023-03-23T23:41:36.942Z,11.00
2023-03-23T23:44:04.776Z,11.00
2023-03-23T23:46:32.479Z,11.00
2023-03-23T23:49:02.562Z,11.00
2023-03-23T23:51:30.276Z,11.00
2023-03-23T23:53:59.273Z,10.90
2023-03-23T23:56:26.904Z,10.70
2023-03-23T23:58:54.267Z,10.80
